Time;durP1;ratioP1;P1;durP2;ratioP2;P2;SDS_P1;SDS_P2;PMS_P1;PMS_P2;Temp;Humidity;BMP_temperature;BMP_pressure;BME280_temperature;BME280_humidity;BME280_pressure;Samples;Min_cycle;Max_cycle;Signal;HPM_P1;HPM_P2
2023/02/24 00:02:18;;;;;;;40.25;23.55;;;10.50;99.90;;;;;;6227694;28;20057;-79
2023/02/24 00:05:22;;;;;;;36.05;24.70;;;10.50;99.90;;;;;;6237857;28;20053;-79
2023/02/24 00:08:24;;;;;;;32.55;22.20;;;10.50;99.90;;;;;;6238052;28;20050;-80
2023/02/24 00:11:26;;;;;;;37.67;26.67;;;10.50;99.90;;;;;;6239677;28;20102;-79
2023/02/24 00:14:31;;;;;;;33.92;23.65;;;10.40;99.90;;;;;;6238576;28;20046;-79
2023/02/24 00:17:35;;;;;;;35.78;23.73;;;10.50;99.90;;;;;;6239781;28;20066;-79
2023/02/24 00:20:39;;;;;;;35.70;26.38;;;10.40;99.90;;;;;;6229635;28;20137;-79
2023/02/24 00:23:45;;;;;;;39.20;26.48;;;10.40;99.90;;;;;;6240144;28;20084;-79
2023/02/24 00:26:54;;;;;;;32.33;22.70;;;10.30;99.90;;;;;;6240573;28;20369;-80
2023/02/24 00:29:56;;;;;;;37.10;23.77;;;10.30;99.90;;;;;;6239056;28;20049;-79
2023/02/24 00:33:00;;;;;;;40.28;23.90;;;10.30;99.90;;;;;;6230679;28;20148;-79
2023/02/24 00:36:13;;;;;;;38.90;24.10;;;10.20;99.90;;;;;;6240037;28;20049;-79
2023/02/24 00:39:15;;;;;;;36.42;23.20;;;10.20;99.90;;;;;;6237024;28;20079;-79
2023/02/24 00:42:21;;;;;;;40.15;24.83;;;10.10;99.90;;;;;;6246393;28;20050;-79
2023/02/24 00:45:23;;;;;;;37.25;24.05;;;10.10;99.90;;;;;;6241522;28;20057;-79
2023/02/24 00:48:27;;;;;;;38.70;24.77;;;10.10;99.90;;;;;;6240727;28;20440;-79
2023/02/24 00:51:36;;;;;;;39.92;24.67;;;10.10;99.90;;;;;;6241790;28;20151;-79
2023/02/24 00:54:49;;;;;;;41.28;24.98;;;10.10;99.90;;;;;;6241179;28;20058;-79
2023/02/24 00:57:51;;;;;;;51.55;28.45;;;10.10;99.90;;;;;;6232524;28;20068;-80
2023/02/24 01:00:56;;;;;;;51.20;26.15;;;10.00;99.90;;;;;;6240383;28;20064;-79
2023/02/24 01:04:13;;;;;;;51.72;29.30;;;9.90;99.90;;;;;;6240846;28;20053;-79
2023/02/24 01:07:16;;;;;;;53.45;28.52;;;9.90;99.90;;;;;;6236235;28;20071;-79
2023/02/24 01:10:25;;;;;;;50.90;27.95;;;9.90;99.90;;;;;;6230899;28;20053;-79
2023/02/24 01:13:27;;;;;;;46.17;25.83;;;9.90;99.90;;;;;;6232150;28;20057;-79
2023/02/24 01:19:51;;;;;;;55.60;29.13;;;9.90;99.90;;;;;;6230937;28;20085;-79
2023/02/24 01:23:02;;;;;;;52.05;27.73;;;9.80;99.90;;;;;;6231702;28;20123;-79
2023/02/24 01:26:16;;;;;;;49.97;27.52;;;9.90;99.90;;;;;;6220091;28;20052;-79
2023/02/24 01:29:27;;;;;;;54.55;28.10;;;9.60;99.90;;;;;;6230774;28;20069;-80
2023/02/24 01:32:46;;;;;;;54.97;28.63;;;9.80;99.90;;;;;;6226165;28;20140;-79
2023/02/24 01:35:57;;;;;;;60.75;28.80;;;9.70;99.90;;;;;;6236968;28;20060;-79
2023/02/24 01:39:00;;;;;;;55.00;25.60;;;9.60;99.90;;;;;;6232180;28;20061;-79
2023/02/24 01:42:25;;;;;;;55.47;29.52;;;9.70;99.90;;;;;;6229910;28;20137;-80
2023/02/24 01:45:29;;;;;;;53.17;27.88;;;9.80;99.90;;;;;;6219324;28;20042;-79
2023/02/24 01:48:31;;;;;;;66.28;28.17;;;9.80;99.90;;;;;;6229745;28;20050;-79
2023/02/24 01:58:45;;;;;;;;;;;;;;;;;;;;;
2023/02/24 02:10:19;;;;;;;59.38;30.75;;;9.70;99.90;;;;;;6232458;28;20049;-79
2023/02/24 02:17:29;;;;;;;66.88;32.53;;;9.70;99.90;;;;;;6169121;28;20054;-79
2023/02/24 02:24:48;;;;;;;67.32;30.85;;;9.60;99.90;;;;;;6150823;29;20043;-78
2023/02/24 02:32:23;;;;;;;68.00;30.05;;;9.50;99.90;;;;;;6204731;28;20085;-80
2023/02/24 02:35:36;;;;;;;63.70;30.52;;;9.50;99.90;;;;;;6229892;28;20061;-79
2023/02/24 02:38:45;;;;;;;64.88;30.38;;;9.50;99.90;;;;;;6229769;28;20056;-79
2023/02/24 02:42:00;;;;;;;63.53;30.48;;;9.40;99.90;;;;;;6228518;28;20053;-79
2023/02/24 02:45:22;;;;;;;67.60;30.17;;;9.40;99.90;;;;;;6229386;28;20054;-79
2023/02/24 02:48:49;;;;;;;68.68;31.40;;;9.30;99.90;;;;;;6219689;28;20497;-79
2023/02/24 02:52:09;;;;;;;64.13;32.28;;;9.40;99.90;;;;;;6229768;28;20042;-79
2023/02/24 02:55:14;;;;;;;63.00;32.70;;;9.50;99.90;;;;;;6230054;28;20499;-80
2023/02/24 02:58:30;;;;;;;68.63;32.28;;;9.40;99.90;;;;;;6230156;28;20041;-79
2023/02/24 03:01:37;;;;;;;67.10;31.73;;;9.50;99.90;;;;;;6229595;28;20041;-79
2023/02/24 03:04:42;;;;;;;64.77;32.30;;;9.40;99.90;;;;;;6226017;28;20050;-79
2023/02/24 03:07:48;;;;;;;72.35;30.95;;;9.40;99.90;;;;;;6236347;28;20050;-79
2023/02/24 03:10:52;;;;;;;60.05;30.30;;;9.50;99.90;;;;;;6229521;28;20042;-79
2023/02/24 03:14:04;;;;;;;63.92;29.67;;;9.50;99.90;;;;;;6218771;28;20045;-79
2023/02/24 03:17:29;;;;;;;63.78;31.00;;;9.50;99.90;;;;;;6229173;28;20054;-79
2023/02/24 03:20:35;;;;;;;68.43;30.13;;;9.50;99.90;;;;;;6228999;28;20048;-79
2023/02/24 03:23:52;;;;;;;65.57;31.70;;;9.40;99.90;;;;;;6229285;28;20057;-79
2023/02/24 03:27:24;;;;;;;60.95;29.27;;;9.40;99.90;;;;;;6230044;28;20050;-79
2023/02/24 03:30:29;;;;;;;62.28;29.15;;;9.40;99.90;;;;;;6234026;28;20100;-79
2023/02/24 03:33:59;;;;;;;;;;;;;;;;;;;;;
2023/02/24 03:37:05;;;;;;;62.40;30.35;;;9.40;99.90;;;;;;6225348;28;20524;-78
2023/02/24 03:40:27;;;;;;;54.58;27.98;;;9.40;99.90;;;;;;6227495;28;20080;-79
2023/02/24 03:43:36;;;;;;;59.50;26.40;;;9.40;99.90;;;;;;6227782;28;20050;-79
2023/02/24 03:46:47;;;;;;;59.03;29.27;;;9.40;99.90;;;;;;6227530;28;20524;-79
2023/02/24 03:49:57;;;;;;;64.43;29.73;;;9.40;99.90;;;;;;6226968;28;20050;-79
2023/02/24 03:53:17;;;;;;;52.40;26.20;;;9.40;99.90;;;;;;6226423;28;20045;-80
2023/02/24 03:56:34;;;;;;;55.30;27.40;;;9.40;99.90;;;;;;6225835;28;20058;-79
2023/02/24 03:59:45;;;;;;;63.72;28.10;;;9.40;99.90;;;;;;6227750;28;20521;-79
2023/02/24 04:02:57;;;;;;;54.85;26.77;;;9.40;99.90;;;;;;6227582;28;20057;-79
2023/02/24 04:06:11;;;;;;;71.95;30.63;;;9.40;99.90;;;;;;6226213;28;20050;-79
2023/02/24 04:09:23;;;;;;;59.33;27.05;;;9.50;99.90;;;;;;6226001;28;20045;-79
2023/02/24 04:12:33;;;;;;;58.90;27.17;;;9.40;99.90;;;;;;6221619;28;20118;-79
2023/02/24 04:15:42;;;;;;;54.28;26.70;;;9.40;99.90;;;;;;6239217;28;20492;-79
2023/02/24 04:18:49;;;;;;;57.92;27.58;;;9.40;99.90;;;;;;6231972;28;20128;-79
2023/02/24 04:22:02;;;;;;;63.22;28.13;;;9.40;99.90;;;;;;6231476;28;20058;-79
2023/02/24 04:25:12;;;;;;;55.85;27.75;;;9.50;99.90;;;;;;6233284;28;20050;-78
2023/02/24 04:28:17;;;;;;;58.50;29.08;;;9.40;99.90;;;;;;6233666;28;20048;-79
2023/02/24 04:52:56;;;;;;;53.25;25.45;;;9.30;99.90;;;;;;6246592;23;20424;-81
2023/02/24 04:56:07;;;;;;;49.38;23.15;;;9.30;99.90;;;;;;6196251;28;20050;-81
2023/02/24 04:59:12;;;;;;;56.90;24.92;;;9.20;99.90;;;;;;6256453;28;20191;-81
2023/02/24 05:02:22;;;;;;;62.17;27.30;;;9.30;99.90;;;;;;6257410;28;20101;-81
2023/02/24 05:05:51;;;;;;;56.92;25.98;;;9.30;99.90;;;;;;6257634;28;20056;-81
2023/02/24 05:09:00;;;;;;;56.53;25.20;;;9.30;99.90;;;;;;6248682;28;20046;-81
2023/02/24 05:12:08;;;;;;;58.53;25.38;;;9.30;99.90;;;;;;6258527;28;20045;-81
2023/02/24 05:18:35;;;;;;;61.03;28.10;;;9.30;99.90;;;;;;6256747;28;19928;-80
2023/02/24 05:21:37;;;;;;;51.83;24.13;;;9.30;99.90;;;;;;6255451;28;20157;-79
2023/02/24 05:24:46;;;;;;;54.00;24.80;;;9.30;99.90;;;;;;6255000;28;20159;-82
2023/02/24 05:27:48;;;;;;;59.13;24.95;;;9.30;99.90;;;;;;6256992;28;20103;-80
2023/02/24 05:30:52;;;;;;;49.97;25.23;;;9.30;99.90;;;;;;6258375;28;20500;-80
2023/02/24 05:33:57;;;;;;;58.88;25.77;;;9.30;99.90;;;;;;6256419;28;20046;-82
2023/02/24 05:37:03;;;;;;;49.85;22.95;;;9.20;99.90;;;;;;6256569;28;20053;-81
2023/02/24 05:40:09;;;;;;;54.78;24.48;;;9.20;99.90;;;;;;6250110;28;20168;-81
2023/02/24 05:43:16;;;;;;;48.03;23.20;;;9.20;99.90;;;;;;6242976;28;20416;-79
2023/02/24 05:46:19;;;;;;;49.92;23.50;;;9.20;99.90;;;;;;6239872;28;20056;-79
2023/02/24 05:49:23;;;;;;;54.55;24.42;;;9.20;99.90;;;;;;6246300;28;20053;-83
2023/02/24 05:52:26;;;;;;;49.00;24.33;;;9.20;99.90;;;;;;6250411;28;20045;-82
2023/02/24 05:55:30;;;;;;;53.58;26.55;;;9.30;99.90;;;;;;6249133;28;20191;-81
2023/02/24 05:58:32;;;;;;;48.72;22.58;;;9.30;99.90;;;;;;6244607;28;20107;-82
2023/02/24 06:01:36;;;;;;;48.75;22.52;;;9.30;99.90;;;;;;6248035;28;20044;-85
2023/02/24 06:04:45;;;;;;;47.55;25.00;;;9.30;99.90;;;;;;6248855;28;20057;-83
2023/02/24 06:07:47;;;;;;;43.83;23.73;;;9.30;99.90;;;;;;6248085;28;20061;-84
2023/02/24 06:10:51;;;;;;;52.38;25.00;;;9.30;99.90;;;;;;6247773;28;20467;-82
2023/02/24 06:13:56;;;;;;;46.95;23.15;;;9.30;99.90;;;;;;6250741;28;20053;-83
2023/02/24 06:16:59;;;;;;;52.17;23.65;;;9.20;99.90;;;;;;6244346;28;20050;-82
2023/02/24 06:20:06;;;;;;;51.88;23.58;;;9.20;99.90;;;;;;6248828;28;20052;-81
2023/02/24 06:23:08;;;;;;;43.90;21.70;;;9.20;99.90;;;;;;6245318;28;20050;-82
2023/02/24 06:26:17;;;;;;;44.78;21.98;;;9.20;99.90;;;;;;6249229;28;20042;-83
2023/02/24 06:29:19;;;;;;;48.92;23.33;;;9.20;99.90;;;;;;6247127;28;20056;-83
2023/02/24 06:32:23;;;;;;;43.80;21.17;;;9.20;99.90;;;;;;6249383;28;20057;-83
2023/02/24 06:35:26;;;;;;;54.83;23.15;;;9.30;99.90;;;;;;6252643;28;20045;-82
2023/02/24 06:38:27;;;;;;;54.10;23.10;;;9.20;99.90;;;;;;6249193;28;20132;-83
2023/02/24 06:41:31;;;;;;;46.70;22.67;;;9.30;99.90;;;;;;6234924;28;20068;-84
2023/02/24 06:44:35;;;;;;;47.15;21.48;;;9.30;99.90;;;;;;6246194;28;20155;-83
2023/02/24 06:47:37;;;;;;;55.47;25.30;;;9.30;99.90;;;;;;6247122;28;20045;-85
2023/02/24 06:50:39;;;;;;;56.15;23.63;;;9.30;99.90;;;;;;6247408;28;20045;-83
2023/02/24 06:53:42;;;;;;;51.17;22.70;;;9.30;99.90;;;;;;6244169;28;20048;-83
2023/02/24 06:56:46;;;;;;;47.35;23.85;;;9.30;99.90;;;;;;6244532;28;20041;-83
2023/02/24 06:59:49;;;;;;;49.67;24.15;;;9.40;99.90;;;;;;6240739;28;20046;-82
2023/02/24 07:02:51;;;;;;;51.60;23.85;;;9.40;99.90;;;;;;6242029;28;20411;-83
2023/02/24 07:06:09;;;;;;;49.45;20.98;;;9.50;99.90;;;;;;6241914;28;20057;-82
2023/02/24 07:09:14;;;;;;;56.28;25.73;;;9.50;99.90;;;;;;6245325;28;20049;-82
2023/02/24 07:12:19;;;;;;;58.63;23.90;;;9.50;99.90;;;;;;6240639;28;20053;-83
2023/02/24 07:15:21;;;;;;;52.15;24.52;;;9.50;99.90;;;;;;6244506;28;20115;-83
2023/02/24 07:18:25;;;;;;;54.78;28.05;;;9.50;99.90;;;;;;6246889;28;20073;-82
2023/02/24 07:21:29;;;;;;;54.33;24.65;;;9.50;99.90;;;;;;6247933;28;20166;-83
2023/02/24 07:24:35;;;;;;;56.75;25.85;;;9.50;99.90;;;;;;6245245;28;20037;-83
2023/02/24 07:27:38;;;;;;;68.45;25.83;;;9.50;99.90;;;;;;6246613;28;20052;-83
2023/02/24 07:30:41;;;;;;;56.25;24.45;;;9.60;99.90;;;;;;6244879;28;20054;-83
2023/02/24 07:33:44;;;;;;;56.85;27.42;;;9.60;99.90;;;;;;6241925;28;20112;-83
2023/02/24 07:36:48;;;;;;;55.15;26.00;;;9.60;99.90;;;;;;6247578;28;20103;-82
2023/02/24 07:39:50;;;;;;;52.58;25.13;;;9.60;99.90;;;;;;6245324;28;20045;-83
2023/02/24 07:42:56;;;;;;;58.05;26.13;;;9.60;99.90;;;;;;6246050;28;20136;-83
2023/02/24 07:45:57;;;;;;;56.40;26.75;;;9.60;99.90;;;;;;6241276;28;20061;-82
2023/02/24 07:49:08;;;;;;;52.83;26.05;;;9.70;99.90;;;;;;6242268;28;20049;-83
2023/02/24 07:52:10;;;;;;;51.38;23.83;;;9.70;99.90;;;;;;6252522;28;20049;-83
2023/02/24 07:55:12;;;;;;;47.95;22.33;;;9.80;99.90;;;;;;6248955;28;20054;-81
2023/02/24 07:58:17;;;;;;;56.35;24.58;;;9.90;99.90;;;;;;6246968;28;20070;-82
2023/02/24 08:01:22;;;;;;;51.45;25.30;;;9.90;99.90;;;;;;6251919;28;20120;-82
2023/02/24 08:04:26;;;;;;;50.45;25.45;;;10.00;99.90;;;;;;6249485;28;20045;-82
2023/02/24 08:07:29;;;;;;;52.45;24.33;;;10.00;99.90;;;;;;6249767;28;20056;-82
2023/02/24 08:10:35;;;;;;;50.28;21.77;;;10.10;99.90;;;;;;6249154;28;20060;-81
2023/02/24 08:13:38;;;;;;;50.72;24.48;;;10.20;99.90;;;;;;6248108;28;20180;-81
2023/02/24 08:16:41;;;;;;;50.80;23.75;;;10.30;99.90;;;;;;6249680;28;20048;-82
2023/02/24 08:19:42;;;;;;;57.25;26.83;;;10.40;99.90;;;;;;6249948;28;20057;-82
2023/02/24 08:22:46;;;;;;;49.85;22.95;;;10.50;99.90;;;;;;6248634;28;20496;-82
2023/02/24 08:25:48;;;;;;;54.03;25.08;;;10.60;99.90;;;;;;6251049;28;20091;-83
2023/02/24 08:28:51;;;;;;;54.72;26.02;;;10.70;99.90;;;;;;6251592;28;20385;-82
2023/02/24 08:31:52;;;;;;;51.50;25.20;;;10.80;99.90;;;;;;6250431;28;21339;-82
2023/02/24 08:35:01;;;;;;;53.88;25.35;;;10.80;99.90;;;;;;6251441;28;20063;-82
2023/02/24 08:38:07;;;;;;;48.08;21.42;;;10.70;99.90;;;;;;6251511;28;20050;-82
2023/02/24 08:41:16;;;;;;;51.13;22.30;;;10.80;99.90;;;;;;6249227;28;20103;-82
2023/02/24 08:44:19;;;;;;;55.95;25.02;;;10.80;99.90;;;;;;6249225;28;20045;-83
2023/02/24 08:47:29;;;;;;;62.17;28.45;;;10.70;99.90;;;;;;6247629;28;20068;-82
2023/02/24 08:50:32;;;;;;;50.63;22.98;;;10.70;99.90;;;;;;6249910;28;20526;-81
2023/02/24 08:53:39;;;;;;;58.35;32.25;;;10.70;99.90;;;;;;6245566;28;20559;-82
2023/02/24 08:56:43;;;;;;;51.85;26.88;;;10.70;99.90;;;;;;6242650;28;20072;-81
2023/02/24 08:59:49;;;;;;;53.50;27.38;;;10.80;99.90;;;;;;6242397;28;20053;-82
2023/02/24 09:02:55;;;;;;;45.10;22.42;;;10.80;99.90;;;;;;6243358;28;20069;-82
2023/02/24 09:05:58;;;;;;;46.55;22.17;;;10.80;99.90;;;;;;6244532;28;20046;-82
2023/02/24 09:09:19;;;;;;;46.22;23.17;;;10.80;99.90;;;;;;6243525;28;20050;-82
2023/02/24 09:12:23;;;;;;;44.88;23.25;;;10.80;99.90;;;;;;6241648;28;20053;-82
2023/02/24 09:15:40;;;;;;;49.00;24.92;;;10.80;99.90;;;;;;6244758;28;20052;-80
2023/02/24 09:18:41;;;;;;;51.55;23.75;;;10.80;99.90;;;;;;6248483;28;20134;-82
2023/02/24 09:25:22;;;;;;;57.33;25.65;;;10.80;99.90;;;;;;6251273;28;20038;-85
2023/02/24 09:28:26;;;;;;;46.80;25.20;;;10.80;99.90;;;;;;6260637;28;20436;-88
2023/02/24 09:31:39;;;;;;;48.95;22.65;;;10.80;99.90;;;;;;6250534;28;20041;-86
2023/02/24 09:34:42;;;;;;;50.78;23.92;;;10.80;99.90;;;;;;6248719;28;20147;-82
2023/02/24 09:37:44;;;;;;;50.03;24.65;;;10.80;99.90;;;;;;6243963;28;20207;-81
2023/02/24 09:40:48;;;;;;;48.33;25.80;;;10.80;99.90;;;;;;6244816;28;20041;-82
2023/02/24 09:43:58;;;;;;;57.08;24.92;;;10.70;99.90;;;;;;6245378;28;20050;-82
2023/02/24 09:47:09;;;;;;;52.03;23.42;;;10.70;99.90;;;;;;6244911;28;20052;-82
2023/02/24 09:50:29;;;;;;;61.38;25.83;;;10.70;99.90;;;;;;6247614;28;20045;-80
2023/02/24 09:53:38;;;;;;;51.83;23.55;;;10.70;99.90;;;;;;6247246;28;20129;-81
2023/02/24 09:56:48;;;;;;;47.53;23.70;;;10.60;99.90;;;;;;6247006;28;20404;-82
2023/02/24 10:00:23;;;;;;;45.15;23.60;;;10.60;99.90;;;;;;6246109;28;21503;-80
2023/02/24 10:03:41;;;;;;;43.88;22.67;;;10.60;99.90;;;;;;6250762;28;20470;-80
2023/02/24 10:06:46;;;;;;;51.13;25.42;;;10.60;99.90;;;;;;6247952;28;20392;-80
2023/02/24 10:09:53;;;;;;;48.80;24.35;;;10.70;99.90;;;;;;6244438;28;20060;-81
2023/02/24 10:13:08;;;;;;;44.27;21.90;;;10.70;99.90;;;;;;6246942;28;20057;-80
2023/02/24 10:16:22;;;;;;;50.03;23.02;;;10.70;99.90;;;;;;6248585;28;20299;-82
2023/02/24 10:19:28;;;;;;;40.38;21.35;;;10.70;99.90;;;;;;6245391;28;20045;-82
2023/02/24 10:22:39;;;;;;;55.03;25.67;;;10.70;99.90;;;;;;6244383;28;20522;-81
2023/02/24 10:25:52;;;;;;;51.95;25.67;;;10.70;99.90;;;;;;6246084;28;20507;-82
2023/02/24 10:29:07;;;;;;;48.58;23.52;;;10.70;99.90;;;;;;6248866;28;20056;-82
2023/02/24 10:32:22;;;;;;;46.78;23.10;;;10.80;99.90;;;;;;6246323;28;20416;-82
2023/02/24 10:35:32;;;;;;;46.85;22.52;;;10.80;99.90;;;;;;6246938;28;20145;-81
2023/02/24 10:38:34;;;;;;;53.25;23.38;;;10.80;99.90;;;;;;6246171;28;20049;-81
2023/02/24 10:41:48;;;;;;;50.83;24.00;;;10.80;99.90;;;;;;6248036;28;20052;-81
2023/02/24 10:44:54;;;;;;;55.75;23.33;;;10.90;99.90;;;;;;6246584;28;20056;-82
2023/02/24 10:47:57;;;;;;;52.40;24.67;;;10.90;99.90;;;;;;6244628;28;20049;-82
2023/02/24 10:51:08;;;;;;;42.72;22.90;;;11.00;99.90;;;;;;6248811;28;20100;-81
2023/02/24 10:54:43;;;;;;;57.78;27.45;;;11.10;99.90;;;;;;6244388;28;20037;-81
2023/02/24 11:01:53;;;;;;;51.75;24.42;;;11.30;99.90;;;;;;6244529;28;20463;-84
2023/02/24 11:05:23;;;;;;;50.25;22.98;;;11.30;99.90;;;;;;6247301;28;20041;-82
2023/02/24 11:08:53;;;;;;;49.60;23.70;;;11.30;99.90;;;;;;6246495;28;20052;-82
2023/02/24 11:18:45;;;;;;;52.53;26.58;;;11.70;99.90;;;;;;6247023;28;20053;-82
2023/02/24 11:21:55;;;;;;;48.67;26.08;;;11.90;99.90;;;;;;6245545;28;20049;-84
2023/02/24 11:25:05;;;;;;;47.38;21.45;;;12.00;99.90;;;;;;6247693;28;20041;-82
2023/02/24 11:28:22;;;;;;;54.95;27.63;;;12.20;99.90;;;;;;6246772;28;20046;-80
2023/02/24 11:31:54;;;;;;;50.47;26.55;;;12.40;99.90;;;;;;6246348;28;20069;-81
2023/02/24 11:35:04;;;;;;;53.38;27.88;;;12.60;99.90;;;;;;6250310;28;20030;-81
2023/02/24 11:38:16;;;;;;;52.38;27.17;;;12.80;99.90;;;;;;6247480;28;20152;-81
2023/02/24 11:45:36;;;;;;;52.38;26.60;;;12.70;99.90;;;;;;6253139;28;20092;-81
2023/02/24 11:48:55;;;;;;;90.28;50.42;;;12.90;99.90;;;;;;6241973;28;20130;-82
2023/02/24 11:52:02;;;;;;;51.88;28.40;;;13.10;99.90;;;;;;6245858;28;20132;-81
2023/02/24 11:55:19;;;;;;;58.00;29.83;;;13.30;99.90;;;;;;6246222;28;20481;-81
2023/02/24 11:59:03;;;;;;;53.72;25.65;;;13.30;99.90;;;;;;6245263;28;20065;-81
2023/02/24 12:09:18;;;;;;;61.50;30.48;;;12.90;99.90;;;;;;6218848;28;20092;-82
2023/02/24 12:12:27;;;;;;;62.10;30.00;;;12.80;99.90;;;;;;6220758;28;20084;-81
2023/02/24 12:15:32;;;;;;;53.95;27.05;;;12.60;99.90;;;;;;6214675;28;20053;-82
2023/02/24 12:18:38;;;;;;;117.85;60.00;;;12.50;99.90;;;;;;6205115;28;20378;-82
2023/02/24 12:21:42;;;;;;;53.10;26.50;;;12.50;99.90;;;;;;6220090;28;20038;-82
2023/02/24 12:24:50;;;;;;;69.40;45.40;;;12.40;99.90;;;;;;6222724;28;20527;-82
2023/02/24 12:28:05;;;;;;;66.38;42.45;;;12.30;99.90;;;;;;6223273;28;20073;-82
2023/02/24 12:31:18;;;;;;;150.20;98.65;;;12.20;99.90;;;;;;6219935;28;20049;-81
2023/02/24 12:34:32;;;;;;;100.25;60.38;;;12.20;99.90;;;;;;6219022;28;20102;-81
2023/02/24 12:37:50;;;;;;;58.20;28.90;;;12.20;99.90;;;;;;6221139;28;20053;-82
2023/02/24 12:41:10;;;;;;;61.70;30.42;;;12.20;99.90;;;;;;6221627;28;20042;-82
2023/02/24 12:44:44;;;;;;;60.20;29.83;;;12.30;99.90;;;;;;6212079;28;20136;-81
2023/02/24 12:48:43;;;;;;;58.97;28.13;;;12.30;99.90;;;;;;6226976;28;20103;-81
2023/02/24 12:51:57;;;;;;;45.90;25.92;;;12.30;99.90;;;;;;6223491;28;20076;-82
2023/02/24 12:55:07;;;;;;;62.53;28.15;;;12.40;99.90;;;;;;6225722;28;20435;-81
2023/02/24 12:58:14;;;;;;;52.50;27.02;;;12.30;99.90;;;;;;6224023;28;20050;-81
2023/02/24 13:01:24;;;;;;;46.25;24.20;;;12.30;99.90;;;;;;6221192;28;20065;-82
2023/02/24 13:04:36;;;;;;;46.75;25.20;;;12.20;99.90;;;;;;6224931;28;20050;-82
2023/02/24 13:07:54;;;;;;;43.17;25.40;;;12.10;99.90;;;;;;6228666;28;20056;-82
2023/02/24 13:11:05;;;;;;;47.40;26.17;;;12.10;99.90;;;;;;6233582;28;20038;-81
2023/02/24 13:14:14;;;;;;;42.22;21.25;;;12.10;99.90;;;;;;6224029;28;20405;-81
2023/02/24 13:17:20;;;;;;;46.33;23.85;;;12.10;99.90;;;;;;6222776;28;20522;-81
2023/02/24 13:20:30;;;;;;;41.30;23.83;;;12.10;99.90;;;;;;6223800;28;20061;-81
2023/02/24 13:23:32;;;;;;;42.33;24.60;;;12.20;99.90;;;;;;6221598;28;20060;-81
2023/02/24 13:26:36;;;;;;;50.70;22.60;;;12.20;99.90;;;;;;6222075;28;20057;-81
2023/02/24 13:29:47;;;;;;;47.97;24.88;;;12.20;99.90;;;;;;6221675;28;20046;-81
2023/02/24 13:33:00;;;;;;;42.22;22.65;;;12.00;99.90;;;;;;6222373;28;20050;-81
2023/02/24 13:36:15;;;;;;;42.75;23.92;;;12.00;99.90;;;;;;6223139;28;20041;-82
2023/02/24 13:39:30;;;;;;;46.10;24.30;;;11.90;99.90;;;;;;6222622;28;20057;-81
2023/02/24 13:42:32;;;;;;;47.10;24.02;;;11.80;99.90;;;;;;6224230;28;20046;-81
2023/02/24 13:45:38;;;;;;;39.53;23.15;;;11.80;99.90;;;;;;6222768;28;20053;-80
2023/02/24 13:49:06;;;;;;;36.15;21.95;;;11.80;99.90;;;;;;6222866;28;20818;-82
2023/02/24 13:52:20;;;;;;;40.67;23.58;;;11.80;99.90;;;;;;6222793;28;20149;-81
2023/02/24 13:55:39;;;;;;;37.55;20.48;;;11.80;99.90;;;;;;6224309;28;20049;-81
2023/02/24 13:58:55;;;;;;;35.85;21.77;;;11.70;99.90;;;;;;6224253;28;20049;-82
2023/02/24 14:02:01;;;;;;;43.28;22.50;;;11.70;99.90;;;;;;6223379;28;20054;-82
2023/02/24 14:05:12;;;;;;;45.20;23.23;;;11.70;99.90;;;;;;6224655;28;20049;-82
2023/02/24 14:08:21;;;;;;;39.00;21.50;;;11.70;99.90;;;;;;6223571;28;20050;-83
2023/02/24 14:11:27;;;;;;;43.17;24.70;;;11.70;99.90;;;;;;6226304;28;20058;-82
2023/02/24 14:14:30;;;;;;;99.78;62.28;;;11.70;99.90;;;;;;6225167;28;20047;-82
2023/02/24 14:17:36;;;;;;;71.95;50.67;;;11.70;99.90;;;;;;6227492;28;20061;-82
2023/02/24 14:20:38;;;;;;;36.85;19.25;;;11.70;99.90;;;;;;6228936;28;20042;-82
2023/02/24 14:23:40;;;;;;;47.88;30.13;;;11.60;99.90;;;;;;6228379;28;20078;-82
2023/02/24 14:26:44;;;;;;;34.60;20.73;;;11.50;99.90;;;;;;6230999;28;20050;-81
2023/02/24 14:29:46;;;;;;;40.65;30.02;;;11.40;99.90;;;;;;6227786;28;20131;-81
2023/02/24 14:32:49;;;;;;;38.78;19.83;;;11.40;99.90;;;;;;6229771;28;20399;-82
2023/02/24 14:35:51;;;;;;;40.28;24.25;;;11.40;99.90;;;;;;6230182;28;20046;-82
2023/02/24 14:39:01;;;;;;;40.10;19.65;;;11.30;99.90;;;;;;6229264;28;20053;-81
2023/02/24 14:42:10;;;;;;;29.98;17.38;;;11.30;99.90;;;;;;6221065;28;22833;-83
2023/02/24 14:45:24;;;;;;;28.45;18.65;;;11.20;99.90;;;;;;6224762;28;20073;-82
2023/02/24 14:48:30;;;;;;;31.38;16.45;;;11.20;99.90;;;;;;6222033;28;20072;-81
2023/02/24 14:51:49;;;;;;;26.95;14.80;;;11.20;99.90;;;;;;6327095;27;20412;-84
2023/02/24 14:54:56;;;;;;;26.90;14.52;;;11.20;99.90;;;;;;6278448;28;20060;-84
2023/02/24 14:58:29;;;;;;;27.52;15.95;;;11.10;99.90;;;;;;6275135;28;22654;-82
2023/02/24 15:01:33;;;;;;;28.58;15.25;;;11.10;99.90;;;;;;6284012;28;20084;-82
2023/02/24 15:04:47;;;;;;;30.38;16.23;;;11.10;99.90;;;;;;6272358;28;20056;-83
2023/02/24 15:07:50;;;;;;;31.27;17.63;;;11.10;99.90;;;;;;6269441;28;20080;-82
2023/02/24 15:10:52;;;;;;;27.17;15.65;;;11.10;99.90;;;;;;6271724;28;20075;-82
2023/02/24 15:14:01;;;;;;;31.42;16.45;;;11.10;99.90;;;;;;6271573;28;20055;-82
2023/02/24 15:17:08;;;;;;;23.88;16.27;;;11.10;99.90;;;;;;6264387;28;20049;-82
2023/02/24 15:20:27;;;;;;;24.92;16.55;;;11.10;99.90;;;;;;6261575;28;20052;-81
2023/02/24 15:23:33;;;;;;;22.88;15.95;;;11.10;99.90;;;;;;6269143;28;20052;-81
2023/02/24 15:26:36;;;;;;;27.10;14.60;;;11.10;99.90;;;;;;6268383;28;20072;-82
2023/02/24 15:29:44;;;;;;;32.83;17.20;;;11.10;99.90;;;;;;6266652;28;20048;-83
2023/02/24 15:32:48;;;;;;;28.95;15.35;;;11.00;99.90;;;;;;6271565;28;20056;-82
2023/02/24 15:35:53;;;;;;;26.38;14.85;;;11.00;99.90;;;;;;6274346;28;20057;-82
2023/02/24 15:38:59;;;;;;;26.55;16.60;;;11.00;99.90;;;;;;6269805;28;20041;-82
2023/02/24 15:42:13;;;;;;;27.27;15.85;;;11.00;99.90;;;;;;6264727;28;20534;-81
2023/02/24 15:45:25;;;;;;;25.27;15.77;;;11.00;99.90;;;;;;6266788;28;20053;-82
2023/02/24 15:48:28;;;;;;;30.27;16.77;;;11.00;99.90;;;;;;6264415;28;20083;-81
2023/02/24 15:51:36;;;;;;;33.42;24.38;;;11.00;99.90;;;;;;6267094;28;20044;-83
2023/02/24 15:54:41;;;;;;;26.27;16.98;;;11.00;99.90;;;;;;6266198;28;21419;-81
2023/02/24 15:57:43;;;;;;;26.23;17.27;;;10.90;99.90;;;;;;6265920;28;20045;-82
2023/02/24 16:00:50;;;;;;;33.65;18.15;;;11.00;99.90;;;;;;6267221;28;20049;-82
2023/02/24 16:03:53;;;;;;;28.60;14.73;;;11.00;99.90;;;;;;6250942;28;20061;-82
2023/02/24 16:06:57;;;;;;;27.98;18.98;;;10.90;99.90;;;;;;6251473;28;20057;-81
2023/02/24 16:10:01;;;;;;;33.03;23.52;;;10.90;99.90;;;;;;6252607;28;20064;-82
2023/02/24 16:13:03;;;;;;;32.75;17.83;;;10.90;99.90;;;;;;6251944;28;20052;-81
2023/02/24 16:16:06;;;;;;;32.38;18.00;;;10.90;99.90;;;;;;6250774;28;20060;-83
2023/02/24 16:19:10;;;;;;;23.27;15.23;;;10.80;99.90;;;;;;6252714;28;20056;-82
2023/02/24 16:22:14;;;;;;;30.85;15.27;;;10.80;99.90;;;;;;6255274;28;20049;-83
2023/02/24 16:25:17;;;;;;;31.20;18.77;;;10.80;99.90;;;;;;6251935;28;20037;-83
2023/02/24 16:28:20;;;;;;;36.92;19.10;;;10.70;99.90;;;;;;6250114;28;20045;-83
2023/02/24 16:31:23;;;;;;;32.17;16.42;;;10.60;99.90;;;;;;6248487;28;20508;-84
2023/02/24 16:34:25;;;;;;;30.13;17.67;;;10.60;99.90;;;;;;6247584;28;20049;-83
2023/02/24 16:37:28;;;;;;;31.10;17.90;;;10.60;99.90;;;;;;6250784;28;20514;-83
2023/02/24 16:40:37;;;;;;;37.25;16.40;;;10.60;99.90;;;;;;6249615;28;20077;-82
2023/02/24 16:43:38;;;;;;;;;;;10.60;99.90;;;;;;6249319;28;20049;-83
2023/02/24 16:46:43;;;;;;;28.77;15.40;;;10.50;99.90;;;;;;6252304;28;20360;-83
2023/02/24 16:49:46;;;;;;;27.67;17.98;;;10.50;99.90;;;;;;6251637;28;20041;-82
2023/02/24 16:52:48;;;;;;;40.05;20.92;;;10.50;99.90;;;;;;6247322;28;20046;-80
2023/02/24 16:55:51;;;;;;;29.52;15.98;;;10.50;99.90;;;;;;6254224;28;20448;-80
2023/02/24 16:58:53;;;;;;;28.50;18.13;;;10.40;99.90;;;;;;6262937;28;20053;-81
2023/02/24 17:01:55;;;;;;;32.08;17.63;;;10.40;99.90;;;;;;6266414;28;20068;-80
2023/02/24 17:04:57;;;;;;;30.17;18.42;;;10.30;99.90;;;;;;6260852;28;20045;-80
2023/02/24 17:07:59;;;;;;;57.80;32.65;;;10.30;99.90;;;;;;6266029;28;20057;-81
2023/02/24 17:11:02;;;;;;;32.47;17.20;;;10.30;99.90;;;;;;6268039;28;20053;-80
2023/02/24 17:14:04;;;;;;;29.02;17.02;;;10.30;99.90;;;;;;6265166;28;20045;-80
2023/02/24 17:17:06;;;;;;;68.32;31.85;;;10.30;99.90;;;;;;6268996;28;20068;-81
2023/02/24 17:20:20;;;;;;;30.38;17.98;;;10.30;99.90;;;;;;6273743;28;20423;-81
2023/02/24 17:23:24;;;;;;;41.63;24.58;;;10.30;99.90;;;;;;6273784;28;20504;-81
2023/02/24 17:26:27;;;;;;;34.05;20.50;;;10.30;99.90;;;;;;6270714;28;20057;-81